sensor_id;sensor_type;location;lat;lon;timestamp;P1;durP1;ratioP1;P2;durP2;ratioP2
85983;SDS011;76557;45.488;12.254;2024-03-02T00:03:28;17.10;;;5.88;;
85983;SDS011;76557;45.488;12.254;2024-03-02T00:07:24;20.35;;;5.95;;
85983;SDS011;76557;45.488;12.254;2024-03-02T00:11:19;12.75;;;5.28;;
85983;SDS011;76557;45.488;12.254;2024-03-02T00:19:26;12.82;;;5.38;;
85983;SDS011;76557;45.488;12.254;2024-03-02T00:23:21;12.18;;;5.43;;
85983;SDS011;76557;45.488;12.254;2024-03-02T00:27:17;11.85;;;4.93;;
85983;SDS011;76557;45.488;12.254;2024-03-02T00:31:14;15.77;;;4.90;;
85983;SDS011;76557;45.488;12.254;2024-03-02T00:35:10;15.32;;;4.85;;
85983;SDS011;76557;45.488;12.254;2024-03-02T00:39:06;11.98;;;5.03;;
85983;SDS011;76557;45.488;12.254;2024-03-02T00:43:02;12.35;;;4.40;;
85983;SDS011;76557;45.488;12.254;2024-03-02T00:46:58;13.20;;;4.75;;
85983;SDS011;76557;45.488;12.254;2024-03-02T00:50:54;13.13;;;5.20;;
85983;SDS011;76557;45.488;12.254;2024-03-02T00:54:50;14.20;;;6.50;;
85983;SDS011;76557;45.488;12.254;2024-03-02T00:58:46;13.57;;;5.28;;
85983;SDS011;76557;45.488;12.254;2024-03-02T01:02:41;14.13;;;6.32;;
85983;SDS011;76557;45.488;12.254;2024-03-02T01:06:39;14.40;;;6.63;;
85983;SDS011;76557;45.488;12.254;2024-03-02T01:10:34;15.27;;;5.57;;
85983;SDS011;76557;45.488;12.254;2024-03-02T01:14:29;13.52;;;6.22;;
85983;SDS011;76557;45.488;12.254;2024-03-02T01:18:25;15.88;;;7.10;;
85983;SDS011;76557;45.488;12.254;2024-03-02T01:22:21;18.25;;;7.25;;
85983;SDS011;76557;45.488;12.254;2024-03-02T01:26:20;17.02;;;8.43;;
85983;SDS011;76557;45.488;12.254;2024-03-02T01:30:15;20.10;;;6.75;;
85983;SDS011;76557;45.488;12.254;2024-03-02T01:34:11;16.63;;;7.03;;
85983;SDS011;76557;45.488;12.254;2024-03-02T01:38:07;14.23;;;7.03;;
85983;SDS011;76557;45.488;12.254;2024-03-02T01:42:03;14.18;;;6.70;;
85983;SDS011;76557;45.488;12.254;2024-03-02T01:45:58;15.13;;;6.57;;
85983;SDS011;76557;45.488;12.254;2024-03-02T01:49:54;15.77;;;6.75;;
85983;SDS011;76557;45.488;12.254;2024-03-02T01:53:49;15.23;;;6.80;;
85983;SDS011;76557;45.488;12.254;2024-03-02T01:57:45;12.90;;;8.93;;
85983;SDS011;76557;45.488;12.254;2024-03-02T02:01:42;17.42;;;6.63;;
85983;SDS011;76557;45.488;12.254;2024-03-02T02:05:37;18.95;;;6.82;;
85983;SDS011;76557;45.488;12.254;2024-03-02T02:09:32;20.38;;;8.52;;
85983;SDS011;76557;45.488;12.254;2024-03-02T02:13:28;13.20;;;8.57;;
85983;SDS011;76557;45.488;12.254;2024-03-02T02:17:23;12.93;;;6.00;;
85983;SDS011;76557;45.488;12.254;2024-03-02T02:21:22;14.25;;;6.90;;
85983;SDS011;76557;45.488;12.254;2024-03-02T02:25:18;16.02;;;7.40;;
85983;SDS011;76557;45.488;12.254;2024-03-02T02:29:13;13.45;;;5.20;;
85983;SDS011;76557;45.488;12.254;2024-03-02T02:33:08;17.98;;;7.53;;
85983;SDS011;76557;45.488;12.254;2024-03-02T02:37:04;16.70;;;8.45;;
85983;SDS011;76557;45.488;12.254;2024-03-02T02:40:59;18.70;;;7.00;;
85983;SDS011;76557;45.488;12.254;2024-03-02T02:44:55;13.02;;;7.18;;
85983;SDS011;76557;45.488;12.254;2024-03-02T02:48:50;15.35;;;5.82;;
85983;SDS011;76557;45.488;12.254;2024-03-02T02:52:48;16.80;;;5.47;;
85983;SDS011;76557;45.488;12.254;2024-03-02T02:56:43;10.82;;;5.07;;
85983;SDS011;76557;45.488;12.254;2024-03-02T03:00:38;13.27;;;7.65;;
85983;SDS011;76557;45.488;12.254;2024-03-02T03:08:30;15.60;;;5.93;;
85983;SDS011;76557;45.488;12.254;2024-03-02T03:12:25;17.80;;;7.05;;
85983;SDS011;76557;45.488;12.254;2024-03-02T03:16:21;13.13;;;6.72;;
85983;SDS011;76557;45.488;12.254;2024-03-02T03:20:16;15.27;;;6.00;;
85983;SDS011;76557;45.488;12.254;2024-03-02T03:24:12;15.82;;;5.78;;
85983;SDS011;76557;45.488;12.254;2024-03-02T03:28:07;10.20;;;4.90;;
85983;SDS011;76557;45.488;12.254;2024-03-02T03:32:05;11.18;;;4.55;;
85983;SDS011;76557;45.488;12.254;2024-03-02T03:36:01;10.68;;;5.88;;
85983;SDS011;76557;45.488;12.254;2024-03-02T03:39:58;11.30;;;6.20;;
85983;SDS011;76557;45.488;12.254;2024-03-02T03:43:57;8.15;;;4.43;;
85983;SDS011;76557;45.488;12.254;2024-03-02T03:47:53;11.80;;;6.63;;
85983;SDS011;76557;45.488;12.254;2024-03-02T03:51:49;10.25;;;4.45;;
85983;SDS011;76557;45.488;12.254;2024-03-02T03:55:45;12.38;;;5.60;;
85983;SDS011;76557;45.488;12.254;2024-03-02T03:59:41;10.63;;;4.20;;
85983;SDS011;76557;45.488;12.254;2024-03-02T04:03:38;15.63;;;5.35;;
85983;SDS011;76557;45.488;12.254;2024-03-02T04:07:35;9.70;;;3.78;;
85983;SDS011;76557;45.488;12.254;2024-03-02T04:11:35;13.13;;;3.88;;
85983;SDS011;76557;45.488;12.254;2024-03-02T04:15:30;11.20;;;3.58;;
85983;SDS011;76557;45.488;12.254;2024-03-02T04:19:25;9.77;;;4.40;;
85983;SDS011;76557;45.488;12.254;2024-03-02T04:23:21;9.88;;;4.32;;
85983;SDS011;76557;45.488;12.254;2024-03-02T04:27:16;8.55;;;3.90;;
85983;SDS011;76557;45.488;12.254;2024-03-02T04:31:11;11.50;;;3.58;;
85983;SDS011;76557;45.488;12.254;2024-03-02T04:35:07;9.55;;;3.72;;
85983;SDS011;76557;45.488;12.254;2024-03-02T04:39:03;9.23;;;4.78;;
85983;SDS011;76557;45.488;12.254;2024-03-02T04:42:59;10.00;;;3.47;;
85983;SDS011;76557;45.488;12.254;2024-03-02T04:46:54;9.52;;;3.60;;
85983;SDS011;76557;45.488;12.254;2024-03-02T04:50:50;13.25;;;3.67;;
85983;SDS011;76557;45.488;12.254;2024-03-02T04:54:45;14.88;;;5.32;;
85983;SDS011;76557;45.488;12.254;2024-03-02T04:59:00;10.48;;;3.60;;
85983;SDS011;76557;45.488;12.254;2024-03-02T05:02:55;9.55;;;3.55;;
85983;SDS011;76557;45.488;12.254;2024-03-02T05:06:50;8.00;;;3.80;;
85983;SDS011;76557;45.488;12.254;2024-03-02T05:10:47;8.93;;;4.22;;
85983;SDS011;76557;45.488;12.254;2024-03-02T05:14:42;10.80;;;4.00;;
85983;SDS011;76557;45.488;12.254;2024-03-02T05:18:38;12.40;;;4.57;;
85983;SDS011;76557;45.488;12.254;2024-03-02T05:22:34;14.60;;;5.32;;
85983;SDS011;76557;45.488;12.254;2024-03-02T05:26:29;7.72;;;2.72;;
85983;SDS011;76557;45.488;12.254;2024-03-02T05:30:25;9.50;;;4.10;;
85983;SDS011;76557;45.488;12.254;2024-03-02T05:34:21;10.13;;;4.50;;
85983;SDS011;76557;45.488;12.254;2024-03-02T05:38:16;9.63;;;5.22;;
85983;SDS011;76557;45.488;12.254;2024-03-02T05:42:11;9.23;;;4.22;;
85983;SDS011;76557;45.488;12.254;2024-03-02T05:46:07;7.88;;;4.95;;
85983;SDS011;76557;45.488;12.254;2024-03-02T05:50:02;12.95;;;4.57;;
85983;SDS011;76557;45.488;12.254;2024-03-02T05:57:54;11.17;;;4.40;;
85983;SDS011;76557;45.488;12.254;2024-03-02T06:02:01;10.95;;;5.88;;
85983;SDS011;76557;45.488;12.254;2024-03-02T06:05:56;9.77;;;4.35;;
85983;SDS011;76557;45.488;12.254;2024-03-02T06:09:52;15.65;;;4.65;;
85983;SDS011;76557;45.488;12.254;2024-03-02T06:13:47;9.35;;;4.35;;
85983;SDS011;76557;45.488;12.254;2024-03-02T06:17:43;13.43;;;5.38;;
85983;SDS011;76557;45.488;12.254;2024-03-02T06:21:38;11.85;;;6.13;;
85983;SDS011;76557;45.488;12.254;2024-03-02T06:25:35;11.75;;;6.05;;
85983;SDS011;76557;45.488;12.254;2024-03-02T06:29:32;12.30;;;5.05;;
85983;SDS011;76557;45.488;12.254;2024-03-02T06:33:28;12.57;;;5.18;;
85983;SDS011;76557;45.488;12.254;2024-03-02T06:37:23;13.57;;;5.10;;
85983;SDS011;76557;45.488;12.254;2024-03-02T06:41:19;10.52;;;5.10;;
85983;SDS011;76557;45.488;12.254;2024-03-02T06:45:15;11.88;;;5.07;;
85983;SDS011;76557;45.488;12.254;2024-03-02T06:49:10;10.30;;;5.15;;
85983;SDS011;76557;45.488;12.254;2024-03-02T06:53:06;13.07;;;6.15;;
85983;SDS011;76557;45.488;12.254;2024-03-02T06:57:01;12.18;;;5.93;;
85983;SDS011;76557;45.488;12.254;2024-03-02T07:00:56;11.20;;;4.82;;
85983;SDS011;76557;45.488;12.254;2024-03-02T07:04:52;10.43;;;4.03;;
85983;SDS011;76557;45.488;12.254;2024-03-02T07:08:48;10.65;;;6.22;;
85983;SDS011;76557;45.488;12.254;2024-03-02T07:12:44;9.85;;;4.97;;
85983;SDS011;76557;45.488;12.254;2024-03-02T07:16:39;9.45;;;4.88;;
85983;SDS011;76557;45.488;12.254;2024-03-02T07:20:35;13.23;;;5.18;;
85983;SDS011;76557;45.488;12.254;2024-03-02T07:24:31;11.02;;;5.97;;
85983;SDS011;76557;45.488;12.254;2024-03-02T07:28:26;13.55;;;7.35;;
85983;SDS011;76557;45.488;12.254;2024-03-02T07:32:21;14.52;;;5.43;;
85983;SDS011;76557;45.488;12.254;2024-03-02T07:36:17;11.55;;;4.72;;
85983;SDS011;76557;45.488;12.254;2024-03-02T07:40:13;10.00;;;4.38;;
85983;SDS011;76557;45.488;12.254;2024-03-02T07:44:09;8.73;;;4.20;;
85983;SDS011;76557;45.488;12.254;2024-03-02T07:48:04;10.65;;;5.72;;
85983;SDS011;76557;45.488;12.254;2024-03-02T07:52:00;8.65;;;4.07;;
85983;SDS011;76557;45.488;12.254;2024-03-02T07:55:56;10.35;;;3.80;;
85983;SDS011;76557;45.488;12.254;2024-03-02T07:59:56;9.20;;;4.22;;
85983;SDS011;76557;45.488;12.254;2024-03-02T08:03:52;9.82;;;4.38;;
85983;SDS011;76557;45.488;12.254;2024-03-02T08:07:47;10.48;;;4.00;;
85983;SDS011;76557;45.488;12.254;2024-03-02T08:11:43;10.50;;;4.90;;
85983;SDS011;76557;45.488;12.254;2024-03-02T08:15:38;11.23;;;4.78;;
85983;SDS011;76557;45.488;12.254;2024-03-02T08:19:34;11.88;;;5.13;;
85983;SDS011;76557;45.488;12.254;2024-03-02T08:23:30;9.35;;;4.72;;
85983;SDS011;76557;45.488;12.254;2024-03-02T08:27:26;11.15;;;6.88;;
85983;SDS011;76557;45.488;12.254;2024-03-02T08:31:21;12.35;;;6.18;;
85983;SDS011;76557;45.488;12.254;2024-03-02T08:35:16;10.40;;;5.38;;
85983;SDS011;76557;45.488;12.254;2024-03-02T08:39:12;9.13;;;3.95;;
85983;SDS011;76557;45.488;12.254;2024-03-02T08:43:11;9.63;;;4.90;;
85983;SDS011;76557;45.488;12.254;2024-03-02T08:47:06;9.68;;;5.15;;
85983;SDS011;76557;45.488;12.254;2024-03-02T08:51:02;11.48;;;5.40;;
85983;SDS011;76557;45.488;12.254;2024-03-02T08:54:59;11.65;;;4.63;;
85983;SDS011;76557;45.488;12.254;2024-03-02T08:58:55;11.15;;;5.00;;
85983;SDS011;76557;45.488;12.254;2024-03-02T09:02:50;10.73;;;4.78;;
85983;SDS011;76557;45.488;12.254;2024-03-02T09:06:45;12.85;;;4.97;;
85983;SDS011;76557;45.488;12.254;2024-03-02T09:10:41;12.60;;;4.35;;
85983;SDS011;76557;45.488;12.254;2024-03-02T09:14:36;10.80;;;4.32;;
85983;SDS011;76557;45.488;12.254;2024-03-02T09:18:33;10.15;;;3.90;;
85983;SDS011;76557;45.488;12.254;2024-03-02T09:22:28;11.57;;;4.60;;
85983;SDS011;76557;45.488;12.254;2024-03-02T09:26:23;8.27;;;3.75;;
85983;SDS011;76557;45.488;12.254;2024-03-02T09:30:19;7.97;;;3.25;;
85983;SDS011;76557;45.488;12.254;2024-03-02T09:34:15;8.15;;;3.83;;
85983;SDS011;76557;45.488;12.254;2024-03-02T09:38:10;6.78;;;3.40;;
85983;SDS011;76557;45.488;12.254;2024-03-02T09:42:06;7.00;;;3.78;;
85983;SDS011;76557;45.488;12.254;2024-03-02T09:46:02;7.25;;;2.75;;
85983;SDS011;76557;45.488;12.254;2024-03-02T09:49:59;7.72;;;2.72;;
85983;SDS011;76557;45.488;12.254;2024-03-02T09:53:55;7.50;;;3.00;;
85983;SDS011;76557;45.488;12.254;2024-03-02T09:57:51;7.53;;;2.72;;
85983;SDS011;76557;45.488;12.254;2024-03-02T10:01:56;7.38;;;2.85;;
85983;SDS011;76557;45.488;12.254;2024-03-02T10:05:53;6.05;;;2.85;;
85983;SDS011;76557;45.488;12.254;2024-03-02T10:09:48;7.38;;;3.00;;
85983;SDS011;76557;45.488;12.254;2024-03-02T10:13:44;7.82;;;3.58;;
85983;SDS011;76557;45.488;12.254;2024-03-02T10:17:40;8.80;;;3.88;;
85983;SDS011;76557;45.488;12.254;2024-03-02T10:21:35;7.90;;;3.80;;
85983;SDS011;76557;45.488;12.254;2024-03-02T10:25:35;7.55;;;3.28;;
85983;SDS011;76557;45.488;12.254;2024-03-02T10:29:31;7.75;;;3.63;;
85983;SDS011;76557;45.488;12.254;2024-03-02T10:33:26;10.70;;;3.67;;
85983;SDS011;76557;45.488;12.254;2024-03-02T10:37:23;8.75;;;4.00;;
85983;SDS011;76557;45.488;12.254;2024-03-02T10:41:19;9.07;;;4.72;;
85983;SDS011;76557;45.488;12.254;2024-03-02T10:45:19;11.45;;;4.18;;
85983;SDS011;76557;45.488;12.254;2024-03-02T10:49:15;8.82;;;4.20;;
85983;SDS011;76557;45.488;12.254;2024-03-02T10:53:12;9.98;;;4.07;;
85983;SDS011;76557;45.488;12.254;2024-03-02T10:57:07;8.93;;;4.97;;
85983;SDS011;76557;45.488;12.254;2024-03-02T11:01:04;7.97;;;3.83;;
85983;SDS011;76557;45.488;12.254;2024-03-02T11:05:02;12.10;;;4.97;;
85983;SDS011;76557;45.488;12.254;2024-03-02T11:09:02;8.90;;;4.45;;
85983;SDS011;76557;45.488;12.254;2024-03-02T11:13:08;11.23;;;4.00;;
85983;SDS011;76557;45.488;12.254;2024-03-02T11:17:06;10.63;;;4.13;;
85983;SDS011;76557;45.488;12.254;2024-03-02T11:21:02;8.98;;;3.65;;
85983;SDS011;76557;45.488;12.254;2024-03-02T11:28:54;9.65;;;4.28;;
85983;SDS011;76557;45.488;12.254;2024-03-02T11:32:55;9.48;;;4.55;;
85983;SDS011;76557;45.488;12.254;2024-03-02T11:36:51;8.10;;;4.03;;
85983;SDS011;76557;45.488;12.254;2024-03-02T11:40:46;8.98;;;4.57;;
85983;SDS011;76557;45.488;12.254;2024-03-02T11:44:42;8.25;;;4.55;;
85983;SDS011;76557;45.488;12.254;2024-03-02T11:48:40;9.50;;;3.95;;
85983;SDS011;76557;45.488;12.254;2024-03-02T11:52:35;10.23;;;4.47;;
85983;SDS011;76557;45.488;12.254;2024-03-02T11:56:33;9.02;;;3.45;;
85983;SDS011;76557;45.488;12.254;2024-03-02T12:00:28;8.40;;;3.35;;
85983;SDS011;76557;45.488;12.254;2024-03-02T12:04:24;7.43;;;3.40;;
85983;SDS011;76557;45.488;12.254;2024-03-02T12:08:21;7.95;;;3.10;;
85983;SDS011;76557;45.488;12.254;2024-03-02T12:12:16;5.78;;;2.95;;
85983;SDS011;76557;45.488;12.254;2024-03-02T12:16:22;9.32;;;3.45;;
85983;SDS011;76557;45.488;12.254;2024-03-02T12:20:27;7.82;;;3.08;;
85983;SDS011;76557;45.488;12.254;2024-03-02T12:24:28;7.50;;;3.22;;
85983;SDS011;76557;45.488;12.254;2024-03-02T12:28:24;9.07;;;3.33;;
85983;SDS011;76557;45.488;12.254;2024-03-02T12:32:20;6.03;;;3.28;;
85983;SDS011;76557;45.488;12.254;2024-03-02T12:36:17;9.45;;;3.45;;
85983;SDS011;76557;45.488;12.254;2024-03-02T12:40:12;9.18;;;4.30;;
85983;SDS011;76557;45.488;12.254;2024-03-02T12:44:09;8.88;;;4.32;;
85983;SDS011;76557;45.488;12.254;2024-03-02T12:48:04;9.93;;;3.38;;
85983;SDS011;76557;45.488;12.254;2024-03-02T12:52:00;9.57;;;2.72;;
85983;SDS011;76557;45.488;12.254;2024-03-02T12:55:56;9.32;;;3.00;;
85983;SDS011;76557;45.488;12.254;2024-03-02T12:59:52;10.23;;;3.17;;
85983;SDS011;76557;45.488;12.254;2024-03-02T13:03:50;6.18;;;2.92;;
85983;SDS011;76557;45.488;12.254;2024-03-02T13:07:49;7.65;;;3.55;;
85983;SDS011;76557;45.488;12.254;2024-03-02T13:11:45;6.90;;;2.85;;
85983;SDS011;76557;45.488;12.254;2024-03-02T13:15:40;6.60;;;3.00;;
85983;SDS011;76557;45.488;12.254;2024-03-02T13:19:37;6.82;;;3.53;;
85983;SDS011;76557;45.488;12.254;2024-03-02T13:23:32;6.82;;;2.50;;
85983;SDS011;76557;45.488;12.254;2024-03-02T13:27:28;7.60;;;2.70;;
85983;SDS011;76557;45.488;12.254;2024-03-02T13:31:23;9.43;;;3.17;;
85983;SDS011;76557;45.488;12.254;2024-03-02T13:35:19;7.30;;;2.85;;
85983;SDS011;76557;45.488;12.254;2024-03-02T13:39:14;8.20;;;2.47;;
85983;SDS011;76557;45.488;12.254;2024-03-02T13:47:06;7.03;;;2.92;;
85983;SDS011;76557;45.488;12.254;2024-03-02T13:51:02;8.15;;;2.85;;
85983;SDS011;76557;45.488;12.254;2024-03-02T13:54:58;8.50;;;2.65;;
85983;SDS011;76557;45.488;12.254;2024-03-02T13:58:53;5.15;;;2.17;;
85983;SDS011;76557;45.488;12.254;2024-03-02T14:02:49;4.70;;;1.83;;
85983;SDS011;76557;45.488;12.254;2024-03-02T14:06:47;6.07;;;2.50;;
85983;SDS011;76557;45.488;12.254;2024-03-02T14:10:42;6.07;;;2.40;;
85983;SDS011;76557;45.488;12.254;2024-03-02T14:14:38;5.72;;;2.05;;
85983;SDS011;76557;45.488;12.254;2024-03-02T14:18:33;5.35;;;1.90;;
85983;SDS011;76557;45.488;12.254;2024-03-02T14:22:29;4.38;;;1.67;;
85983;SDS011;76557;45.488;12.254;2024-03-02T14:26:24;6.22;;;3.20;;
85983;SDS011;76557;45.488;12.254;2024-03-02T14:30:19;6.28;;;2.58;;
85983;SDS011;76557;45.488;12.254;2024-03-02T14:34:15;4.10;;;1.88;;
85983;SDS011;76557;45.488;12.254;2024-03-02T14:42:06;4.90;;;1.55;;
85983;SDS011;76557;45.488;12.254;2024-03-02T14:46:03;9.02;;;1.73;;
85983;SDS011;76557;45.488;12.254;2024-03-02T14:49:59;6.07;;;2.05;;
85983;SDS011;76557;45.488;12.254;2024-03-02T14:57:50;7.27;;;2.07;;
85983;SDS011;76557;45.488;12.254;2024-03-02T15:01:45;5.28;;;2.08;;
85983;SDS011;76557;45.488;12.254;2024-03-02T15:05:41;4.38;;;1.48;;
85983;SDS011;76557;45.488;12.254;2024-03-02T15:09:36;4.75;;;2.33;;
85983;SDS011;76557;45.488;12.254;2024-03-02T15:13:32;8.40;;;2.88;;
85983;SDS011;76557;45.488;12.254;2024-03-02T15:17:28;7.95;;;2.92;;
85983;SDS011;76557;45.488;12.254;2024-03-02T15:21:24;6.35;;;2.53;;
85983;SDS011;76557;45.488;12.254;2024-03-02T15:25:19;5.00;;;2.25;;
85983;SDS011;76557;45.488;12.254;2024-03-02T15:29:15;8.93;;;3.15;;
85983;SDS011;76557;45.488;12.254;2024-03-02T15:33:10;5.18;;;2.80;;
85983;SDS011;76557;45.488;12.254;2024-03-02T15:37:06;7.82;;;2.33;;
85983;SDS011;76557;45.488;12.254;2024-03-02T15:41:01;7.13;;;2.47;;
85983;SDS011;76557;45.488;12.254;2024-03-02T15:44:57;8.13;;;3.13;;
85983;SDS011;76557;45.488;12.254;2024-03-02T15:48:52;5.45;;;2.10;;
85983;SDS011;76557;45.488;12.254;2024-03-02T15:52:48;7.07;;;2.53;;
85983;SDS011;76557;45.488;12.254;2024-03-02T15:56:43;7.30;;;2.40;;
85983;SDS011;76557;45.488;12.254;2024-03-02T16:00:39;10.63;;;3.10;;
85983;SDS011;76557;45.488;12.254;2024-03-02T16:04:35;8.43;;;3.80;;
85983;SDS011;76557;45.488;12.254;2024-03-02T16:08:31;7.05;;;3.65;;
85983;SDS011;76557;45.488;12.254;2024-03-02T16:12:26;8.30;;;3.63;;
85983;SDS011;76557;45.488;12.254;2024-03-02T16:16:21;6.47;;;3.15;;
85983;SDS011;76557;45.488;12.254;2024-03-02T16:20:17;12.20;;;3.25;;
85983;SDS011;76557;45.488;12.254;2024-03-02T16:24:12;8.60;;;2.90;;
85983;SDS011;76557;45.488;12.254;2024-03-02T16:28:07;8.45;;;3.90;;
85983;SDS011;76557;45.488;12.254;2024-03-02T16:32:03;9.00;;;4.15;;
85983;SDS011;76557;45.488;12.254;2024-03-02T16:35:59;9.95;;;4.28;;
85983;SDS011;76557;45.488;12.254;2024-03-02T16:39:54;9.32;;;4.35;;
85983;SDS011;76557;45.488;12.254;2024-03-02T16:43:51;11.00;;;4.40;;
85983;SDS011;76557;45.488;12.254;2024-03-02T16:47:47;11.18;;;5.25;;
85983;SDS011;76557;45.488;12.254;2024-03-02T16:51:43;14.05;;;4.97;;
85983;SDS011;76557;45.488;12.254;2024-03-02T16:59:34;10.90;;;4.90;;
85983;SDS011;76557;45.488;12.254;2024-03-02T17:03:30;15.95;;;5.68;;
85983;SDS011;76557;45.488;12.254;2024-03-02T17:07:25;10.75;;;5.28;;
85983;SDS011;76557;45.488;12.254;2024-03-02T17:11:24;12.02;;;5.05;;
85983;SDS011;76557;45.488;12.254;2024-03-02T17:15:19;11.80;;;5.07;;
85983;SDS011;76557;45.488;12.254;2024-03-02T17:19:15;10.48;;;4.10;;
85983;SDS011;76557;45.488;12.254;2024-03-02T17:23:10;10.45;;;4.80;;
85983;SDS011;76557;45.488;12.254;2024-03-02T17:27:06;11.52;;;4.82;;
85983;SDS011;76557;45.488;12.254;2024-03-02T17:31:01;11.18;;;5.10;;
85983;SDS011;76557;45.488;12.254;2024-03-02T17:34:58;10.38;;;5.20;;
85983;SDS011;76557;45.488;12.254;2024-03-02T17:38:54;10.90;;;4.43;;
85983;SDS011;76557;45.488;12.254;2024-03-02T17:42:50;10.23;;;6.55;;
85983;SDS011;76557;45.488;12.254;2024-03-02T17:46:45;9.80;;;5.25;;
85983;SDS011;76557;45.488;12.254;2024-03-02T17:50:41;13.75;;;6.43;;
85983;SDS011;76557;45.488;12.254;2024-03-02T17:54:36;10.32;;;5.45;;
85983;SDS011;76557;45.488;12.254;2024-03-02T17:58:32;11.88;;;6.13;;
85983;SDS011;76557;45.488;12.254;2024-03-02T18:02:27;13.48;;;6.38;;
85983;SDS011;76557;45.488;12.254;2024-03-02T18:06:24;13.80;;;6.70;;
85983;SDS011;76557;45.488;12.254;2024-03-02T18:10:20;12.95;;;8.43;;
85983;SDS011;76557;45.488;12.254;2024-03-02T18:14:15;10.80;;;6.40;;
85983;SDS011;76557;45.488;12.254;2024-03-02T18:18:11;14.23;;;7.60;;
85983;SDS011;76557;45.488;12.254;2024-03-02T18:22:07;15.25;;;8.13;;
85983;SDS011;76557;45.488;12.254;2024-03-02T18:26:02;14.65;;;7.55;;
85983;SDS011;76557;45.488;12.254;2024-03-02T18:29:58;13.77;;;8.10;;
85983;SDS011;76557;45.488;12.254;2024-03-02T18:33:53;20.73;;;8.32;;
85983;SDS011;76557;45.488;12.254;2024-03-02T18:37:49;14.18;;;7.72;;
85983;SDS011;76557;45.488;12.254;2024-03-02T18:41:44;13.02;;;8.05;;
85983;SDS011;76557;45.488;12.254;2024-03-02T18:45:40;14.20;;;7.55;;
85983;SDS011;76557;45.488;12.254;2024-03-02T18:49:35;13.52;;;6.43;;
85983;SDS011;76557;45.488;12.254;2024-03-02T18:53:31;14.68;;;8.23;;
85983;SDS011;76557;45.488;12.254;2024-03-02T18:57:26;12.35;;;7.28;;
85983;SDS011;76557;45.488;12.254;2024-03-02T19:01:21;13.80;;;7.03;;
85983;SDS011;76557;45.488;12.254;2024-03-02T19:05:17;14.40;;;7.30;;
85983;SDS011;76557;45.488;12.254;2024-03-02T19:09:13;15.43;;;6.97;;
85983;SDS011;76557;45.488;12.254;2024-03-02T19:13:09;15.77;;;9.38;;
85983;SDS011;76557;45.488;12.254;2024-03-02T19:17:05;21.90;;;10.52;;
85983;SDS011;76557;45.488;12.254;2024-03-02T19:21:00;21.55;;;12.15;;
85983;SDS011;76557;45.488;12.254;2024-03-02T19:24:56;25.25;;;12.85;;
85983;SDS011;76557;45.488;12.254;2024-03-02T19:28:51;25.42;;;13.93;;
85983;SDS011;76557;45.488;12.254;2024-03-02T19:32:47;21.63;;;12.75;;
85983;SDS011;76557;45.488;12.254;2024-03-02T19:36:43;21.98;;;13.02;;
85983;SDS011;76557;45.488;12.254;2024-03-02T19:40:38;20.80;;;12.35;;
85983;SDS011;76557;45.488;12.254;2024-03-02T19:44:34;20.90;;;12.63;;
85983;SDS011;76557;45.488;12.254;2024-03-02T19:48:30;22.10;;;14.10;;
85983;SDS011;76557;45.488;12.254;2024-03-02T19:52:25;24.75;;;15.02;;
85983;SDS011;76557;45.488;12.254;2024-03-02T19:56:21;23.33;;;14.98;;
85983;SDS011;76557;45.488;12.254;2024-03-02T20:00:19;25.63;;;15.30;;
85983;SDS011;76557;45.488;12.254;2024-03-02T20:04:15;24.42;;;14.88;;
85983;SDS011;76557;45.488;12.254;2024-03-02T20:08:11;26.05;;;15.60;;
85983;SDS011;76557;45.488;12.254;2024-03-02T20:12:06;25.85;;;14.05;;
85983;SDS011;76557;45.488;12.254;2024-03-02T20:16:07;21.92;;;14.07;;
85983;SDS011;76557;45.488;12.254;2024-03-02T20:20:04;22.13;;;13.00;;
85983;SDS011;76557;45.488;12.254;2024-03-02T20:24:05;23.40;;;13.35;;
85983;SDS011;76557;45.488;12.254;2024-03-02T20:28:01;23.50;;;14.07;;
85983;SDS011;76557;45.488;12.254;2024-03-02T20:31:56;26.98;;;15.70;;
85983;SDS011;76557;45.488;12.254;2024-03-02T20:35:53;29.48;;;16.55;;
85983;SDS011;76557;45.488;12.254;2024-03-02T20:43:49;25.73;;;16.02;;
85983;SDS011;76557;45.488;12.254;2024-03-02T20:47:45;31.17;;;16.33;;
85983;SDS011;76557;45.488;12.254;2024-03-02T20:51:40;33.53;;;19.30;;
85983;SDS011;76557;45.488;12.254;2024-03-02T20:55:35;25.88;;;15.15;;
85983;SDS011;76557;45.488;12.254;2024-03-02T20:59:33;26.65;;;14.52;;
85983;SDS011;76557;45.488;12.254;2024-03-02T21:03:29;27.25;;;15.57;;
85983;SDS011;76557;45.488;12.254;2024-03-02T21:07:24;25.50;;;15.68;;
85983;SDS011;76557;45.488;12.254;2024-03-02T21:11:19;27.58;;;17.55;;
85983;SDS011;76557;45.488;12.254;2024-03-02T21:15:16;32.20;;;18.38;;
85983;SDS011;76557;45.488;12.254;2024-03-02T21:19:12;34.58;;;18.33;;
85983;SDS011;76557;45.488;12.254;2024-03-02T21:23:07;30.25;;;19.15;;
85983;SDS011;76557;45.488;12.254;2024-03-02T21:27:06;34.53;;;20.50;;
85983;SDS011;76557;45.488;12.254;2024-03-02T21:31:02;32.17;;;19.13;;
85983;SDS011;76557;45.488;12.254;2024-03-02T21:34:58;39.45;;;20.83;;
85983;SDS011;76557;45.488;12.254;2024-03-02T21:38:54;35.55;;;21.42;;
85983;SDS011;76557;45.488;12.254;2024-03-02T21:42:49;33.05;;;21.02;;
85983;SDS011;76557;45.488;12.254;2024-03-02T21:46:47;34.95;;;21.00;;
85983;SDS011;76557;45.488;12.254;2024-03-02T21:50:43;40.60;;;23.02;;
85983;SDS011;76557;45.488;12.254;2024-03-02T21:54:38;38.03;;;21.08;;
85983;SDS011;76557;45.488;12.254;2024-03-02T21:58:34;37.78;;;21.75;;
85983;SDS011;76557;45.488;12.254;2024-03-02T22:02:29;39.67;;;22.60;;
85983;SDS011;76557;45.488;12.254;2024-03-02T22:06:25;42.17;;;21.63;;
85983;SDS011;76557;45.488;12.254;2024-03-02T22:10:20;37.00;;;21.35;;
85983;SDS011;76557;45.488;12.254;2024-03-02T22:14:18;38.28;;;19.98;;
85983;SDS011;76557;45.488;12.254;2024-03-02T22:18:14;33.63;;;19.20;;
85983;SDS011;76557;45.488;12.254;2024-03-02T22:22:09;31.90;;;19.48;;
85983;SDS011;76557;45.488;12.254;2024-03-02T22:26:05;29.92;;;19.95;;
85983;SDS011;76557;45.488;12.254;2024-03-02T22:30:00;36.88;;;20.48;;
85983;SDS011;76557;45.488;12.254;2024-03-02T22:33:56;40.42;;;22.50;;
85983;SDS011;76557;45.488;12.254;2024-03-02T22:37:51;41.08;;;25.08;;
85983;SDS011;76557;45.488;12.254;2024-03-02T22:41:46;41.08;;;24.15;;
85983;SDS011;76557;45.488;12.254;2024-03-02T22:45:42;38.05;;;23.35;;
85983;SDS011;76557;45.488;12.254;2024-03-02T22:49:38;43.97;;;24.13;;
85983;SDS011;76557;45.488;12.254;2024-03-02T22:53:34;43.15;;;23.40;;
85983;SDS011;76557;45.488;12.254;2024-03-02T22:57:31;38.80;;;23.27;;
85983;SDS011;76557;45.488;12.254;2024-03-02T23:01:26;49.60;;;24.92;;
85983;SDS011;76557;45.488;12.254;2024-03-02T23:05:24;41.22;;;25.15;;
85983;SDS011;76557;45.488;12.254;2024-03-02T23:09:19;39.83;;;22.25;;
85983;SDS011;76557;45.488;12.254;2024-03-02T23:13:15;46.88;;;24.63;;
85983;SDS011;76557;45.488;12.254;2024-03-02T23:17:10;44.17;;;23.25;;
85983;SDS011;76557;45.488;12.254;2024-03-02T23:21:05;45.47;;;25.17;;
85983;SDS011;76557;45.488;12.254;2024-03-02T23:25:02;41.15;;;23.02;;
85983;SDS011;76557;45.488;12.254;2024-03-02T23:28:57;48.85;;;27.17;;
85983;SDS011;76557;45.488;12.254;2024-03-02T23:32:53;46.67;;;24.40;;
85983;SDS011;76557;45.488;12.254;2024-03-02T23:36:49;47.25;;;24.42;;
85983;SDS011;76557;45.488;12.254;2024-03-02T23:40:44;45.03;;;23.15;;